createdAt,value
2023-04-20T00:01:25.077Z,60.48
2023-04-20T00:03:52.572Z,61.22
2023-04-20T00:06:21.906Z,61.92
2023-04-20T00:08:49.059Z,61.67
2023-04-20T00:11:16.052Z,60.28
2023-04-20T00:13:43.089Z,59.89
2023-04-20T00:16:10.026Z,59.82
2023-04-20T00:18:37.331Z,59.24
2023-04-20T00:21:04.614Z,60.44
2023-04-20T00:23:31.881Z,60.58
2023-04-20T00:25:59.027Z,61.33
2023-04-20T00:28:26.185Z,61.68
2023-04-20T00:30:53.340Z,60.72
2023-04-20T00:33:21.031Z,60.20
2023-04-20T00:35:48.029Z,60.16
2023-04-20T00:38:16.716Z,60.55
2023-04-20T00:40:44.606Z,61.09
2023-04-20T00:43:12.224Z,62.03
2023-04-20T00:45:39.313Z,62.18
2023-04-20T00:48:06.649Z,62.20
2023-04-20T00:50:34.233Z,60.98
2023-04-20T00:53:02.342Z,60.51
2023-04-20T00:55:29.854Z,60.53
2023-04-20T00:57:57.274Z,61.11
2023-04-20T01:00:26.196Z,61.86
2023-04-20T01:02:53.442Z,62.55
2023-04-20T01:05:21.205Z,63.38
2023-04-20T01:07:49.555Z,62.07
2023-04-20T01:10:16.585Z,61.71
2023-04-20T01:12:44.336Z,61.31
2023-04-20T01:15:11.361Z,61.44
2023-04-20T01:17:40.437Z,62.17
2023-04-20T01:20:11.736Z,62.51
2023-04-20T01:22:49.612Z,63.18
2023-04-20T01:25:16.941Z,63.93
2023-04-20T01:27:44.402Z,63.66
2023-04-20T01:30:14.665Z,62.49
2023-04-20T01:32:41.991Z,61.11
2023-04-20T01:35:09.624Z,61.76
2023-04-20T01:37:39.171Z,61.45
2023-04-20T01:40:11.589Z,61.94
2023-04-20T01:42:38.975Z,61.95
2023-04-20T01:45:06.859Z,63.12
2023-04-20T01:47:35.809Z,63.11
2023-04-20T01:50:03.298Z,61.75
2023-04-20T01:52:30.995Z,60.59
2023-04-20T01:54:57.953Z,60.80
2023-04-20T01:57:25.147Z,61.73
2023-04-20T01:59:52.158Z,61.28
2023-04-20T02:02:19.222Z,62.31
2023-04-20T02:04:46.317Z,63.42
2023-04-20T02:07:13.227Z,63.58
2023-04-20T02:09:40.356Z,62.53
2023-04-20T02:12:07.878Z,61.52
2023-04-20T02:14:34.893Z,61.50
2023-04-20T02:17:02.192Z,62.17
2023-04-20T02:19:29.806Z,62.56
2023-04-20T02:21:56.866Z,63.63
2023-04-20T02:24:24.038Z,63.77
2023-04-20T02:26:51.167Z,62.35
2023-04-20T02:29:18.275Z,61.69
2023-04-20T02:31:45.853Z,61.98
2023-04-20T02:34:16.336Z,60.95
2023-04-20T02:36:43.321Z,61.42
2023-04-20T02:39:13.235Z,63.03
2023-04-20T02:41:40.706Z,64.08
2023-04-20T02:44:09.188Z,64.27
2023-04-20T02:46:38.014Z,62.31
2023-04-20T02:49:05.115Z,61.35
2023-04-20T02:51:35.628Z,61.62
2023-04-20T02:54:03.612Z,62.39
2023-04-20T02:56:32.090Z,62.99
2023-04-20T02:59:04.095Z,63.84
2023-04-20T03:01:49.577Z,63.79
2023-04-20T03:04:21.144Z,62.55
2023-04-20T03:06:58.903Z,62.20
2023-04-20T03:09:29.103Z,62.39
2023-04-20T03:12:23.236Z,63.03
2023-04-20T03:14:56.301Z,63.73
2023-04-20T03:17:30.921Z,64.53
2023-04-20T03:19:57.972Z,64.24
2023-04-20T03:22:24.946Z,62.75
2023-04-20T03:24:54.056Z,62.20
2023-04-20T03:27:39.715Z,62.35
2023-04-20T03:30:10.941Z,62.76
2023-04-20T03:32:38.725Z,63.14
2023-04-20T03:35:06.669Z,62.76
2023-04-20T03:37:34.060Z,62.91
2023-04-20T03:40:01.132Z,63.17
2023-04-20T03:42:28.178Z,64.03
2023-04-20T03:44:55.313Z,63.02
2023-04-20T03:47:22.373Z,62.30
2023-04-20T03:49:49.854Z,62.33
2023-04-20T03:52:16.919Z,62.62
2023-04-20T03:54:43.886Z,63.43
2023-04-20T03:57:11.887Z,63.84
2023-04-20T03:59:39.234Z,63.95
2023-04-20T04:02:06.495Z,62.31
2023-04-20T04:04:33.964Z,62.13
2023-04-20T04:07:01.399Z,62.03
2023-04-20T04:09:28.437Z,62.13
2023-04-20T04:11:55.361Z,62.18
2023-04-20T04:14:23.252Z,62.55
2023-04-20T04:16:50.602Z,63.24
2023-04-20T04:19:18.521Z,62.77
2023-04-20T04:21:46.522Z,60.04
2023-04-20T04:24:14.243Z,58.61
2023-04-20T04:26:56.757Z,58.07
2023-04-20T04:29:25.821Z,57.39
2023-04-20T04:31:53.825Z,57.21
2023-04-20T04:34:21.376Z,57.24
2023-04-20T04:36:50.924Z,56.47
2023-04-20T04:39:22.436Z,56.15
2023-04-20T04:41:58.712Z,55.99
2023-04-20T04:44:34.265Z,54.77
2023-04-20T04:47:05.605Z,52.77
2023-04-20T04:49:32.928Z,51.60
2023-04-20T04:52:00.316Z,51.30
2023-04-20T04:54:27.296Z,51.59
2023-04-20T04:56:54.261Z,51.83
2023-04-20T04:59:21.514Z,51.52
2023-04-20T05:01:48.483Z,52.10
2023-04-20T05:04:58.952Z,52.82
2023-04-20T05:07:26.398Z,53.10
2023-04-20T05:09:53.885Z,53.82
2023-04-20T05:12:20.888Z,54.52
2023-04-20T05:14:49.848Z,54.80
2023-04-20T05:17:16.876Z,55.36
2023-04-20T05:19:44.035Z,55.88
2023-04-20T05:22:11.115Z,56.30
2023-04-20T05:24:38.065Z,56.39
2023-04-20T05:27:05.061Z,56.35
2023-04-20T05:29:32.579Z,56.03
2023-04-20T05:31:59.826Z,54.40
2023-04-20T05:34:26.820Z,53.59
2023-04-20T05:36:54.998Z,53.69
2023-04-20T05:39:21.980Z,51.29
2023-04-20T05:41:48.941Z,51.47
2023-04-20T05:44:15.960Z,50.86
2023-04-20T05:46:42.952Z,51.55
2023-04-20T05:49:09.904Z,51.06
2023-04-20T05:51:37.485Z,51.80
2023-04-20T05:54:04.752Z,51.69
2023-04-20T05:56:31.866Z,52.38
2023-04-20T05:58:58.882Z,53.31
2023-04-20T06:01:25.947Z,53.63
2023-04-20T06:03:53.214Z,51.98
2023-04-20T06:06:20.468Z,49.66
2023-04-20T06:08:47.593Z,47.67
2023-04-20T06:11:14.465Z,46.89
2023-04-20T06:13:41.507Z,42.93
2023-04-20T06:16:11.027Z,41.09
2023-04-20T06:18:38.256Z,40.23
2023-04-20T06:21:05.236Z,41.02
2023-04-20T06:23:32.795Z,39.10
2023-04-20T06:25:59.956Z,40.88
2023-04-20T06:28:27.050Z,41.60
2023-04-20T06:30:53.945Z,41.72
2023-04-20T06:33:21.511Z,41.00
2023-04-20T06:35:48.434Z,40.87
2023-04-20T06:38:15.676Z,40.92
2023-04-20T06:40:42.564Z,39.65
2023-04-20T06:43:09.568Z,41.45
2023-04-20T06:45:36.609Z,40.91
2023-04-20T06:48:03.669Z,41.25
2023-04-20T06:50:30.905Z,39.26
2023-04-20T06:52:57.850Z,39.49
2023-04-20T06:55:24.807Z,37.22
2023-04-20T06:57:51.818Z,36.28
2023-04-20T07:00:19.443Z,34.55
2023-04-20T07:02:47.505Z,36.63
2023-04-20T07:05:15.125Z,33.79
2023-04-20T07:07:42.471Z,33.04
2023-04-20T07:10:10.169Z,32.71
2023-04-20T07:12:37.273Z,32.66
2023-04-20T07:15:05.057Z,31.20
2023-04-20T07:17:32.324Z,32.78
2023-04-20T07:20:05.949Z,33.34
2023-04-20T07:22:36.997Z,33.49
2023-04-20T07:25:05.065Z,33.45
2023-04-20T07:27:35.289Z,34.94
2023-04-20T07:30:02.341Z,32.33
2023-04-20T07:32:29.864Z,34.69
2023-04-20T07:34:56.857Z,32.73
2023-04-20T07:37:26.848Z,34.12
2023-04-20T07:39:54.308Z,34.29
2023-04-20T07:42:21.904Z,32.83
2023-04-20T07:44:49.246Z,32.01
2023-04-20T07:47:16.511Z,32.88
2023-04-20T07:49:43.929Z,31.93
2023-04-20T07:52:16.784Z,29.86
2023-04-20T07:54:45.553Z,30.92
2023-04-20T07:57:12.524Z,31.00
2023-04-20T07:59:40.884Z,30.55
2023-04-20T08:02:08.116Z,28.52
2023-04-20T08:04:38.343Z,29.86
2023-04-20T08:07:05.715Z,27.69
2023-04-20T08:09:32.843Z,29.69
2023-04-20T08:12:00.663Z,30.58
2023-04-20T08:14:27.725Z,30.87
2023-04-20T08:16:54.747Z,31.32
2023-04-20T08:19:21.927Z,29.08
2023-04-20T08:21:48.962Z,28.73
2023-04-20T08:24:16.461Z,27.84
2023-04-20T08:26:43.561Z,28.34
2023-04-20T08:29:10.844Z,29.03
2023-04-20T08:31:38.241Z,27.04
2023-04-20T08:34:05.216Z,27.18
2023-04-20T08:36:32.334Z,28.15
2023-04-20T08:39:10.182Z,24.61
2023-04-20T08:41:37.170Z,27.32
2023-04-20T08:44:04.248Z,28.34
2023-04-20T08:46:31.346Z,29.54
2023-04-20T08:48:58.368Z,29.14
2023-04-20T08:51:25.792Z,26.24
2023-04-20T08:53:52.692Z,28.42
2023-04-20T08:56:19.611Z,28.12
2023-04-20T08:58:46.647Z,26.83
2023-04-20T09:01:17.708Z,28.89
2023-04-20T09:03:47.269Z,29.18
2023-04-20T09:06:17.991Z,27.28
2023-04-20T09:08:50.173Z,28.14
2023-04-20T09:11:32.556Z,28.01
2023-04-20T09:14:10.111Z,28.44
2023-04-20T09:16:37.792Z,27.76
2023-04-20T09:19:05.916Z,28.24
2023-04-20T09:21:33.840Z,29.06
2023-04-20T09:24:02.506Z,28.30
2023-04-20T09:26:34.147Z,29.90
2023-04-20T09:29:04.540Z,28.40
2023-04-20T09:31:35.806Z,28.72
2023-04-20T09:34:03.451Z,29.26
2023-04-20T09:36:54.493Z,29.02
2023-04-20T09:39:22.858Z,30.16
2023-04-20T09:41:50.924Z,30.39
2023-04-20T09:44:18.521Z,29.40
2023-04-20T09:46:46.661Z,28.63
2023-04-20T09:49:14.234Z,29.66
2023-04-20T09:51:45.374Z,28.75
2023-04-20T09:54:12.763Z,30.40
2023-04-20T09:56:39.848Z,29.11
2023-04-20T09:59:08.011Z,29.56
2023-04-20T10:01:36.475Z,30.24
2023-04-20T10:04:14.418Z,29.23
2023-04-20T10:06:52.314Z,29.57
2023-04-20T10:09:24.516Z,30.40
2023-04-20T10:11:54.600Z,30.44
2023-04-20T10:14:24.145Z,30.21
2023-04-20T10:17:05.416Z,30.23
2023-04-20T10:19:40.248Z,31.31
2023-04-20T10:22:08.226Z,29.36
2023-04-20T10:24:38.144Z,28.72
2023-04-20T10:27:18.615Z,29.19
2023-04-20T10:29:45.941Z,30.75
2023-04-20T10:32:26.099Z,32.14
2023-04-20T10:35:07.822Z,30.66
2023-04-20T10:37:36.023Z,30.45
2023-04-20T10:40:07.403Z,30.34
2023-04-20T10:42:43.525Z,30.63
2023-04-20T10:45:11.427Z,30.02
2023-04-20T10:47:41.139Z,30.07
2023-04-20T10:50:12.747Z,30.79
2023-04-20T10:52:41.550Z,28.92
2023-04-20T10:55:22.067Z,30.77
2023-04-20T10:57:49.714Z,30.47
2023-04-20T11:00:20.952Z,30.20
2023-04-20T11:02:52.355Z,30.90
2023-04-20T11:05:20.406Z,30.01
2023-04-20T11:07:58.885Z,30.63
2023-04-20T11:10:38.624Z,29.28
2023-04-20T11:13:07.499Z,30.17
2023-04-20T11:15:35.165Z,29.32
2023-04-20T11:18:09.231Z,29.47
2023-04-20T11:20:36.636Z,27.79
2023-04-20T11:23:05.900Z,28.04
2023-04-20T11:25:32.815Z,28.00
2023-04-20T11:28:10.730Z,29.45
2023-04-20T11:30:41.527Z,29.32
2023-04-20T11:33:08.926Z,29.22
2023-04-20T11:35:37.907Z,30.25
2023-04-20T11:38:05.204Z,29.85
2023-04-20T11:40:32.236Z,29.78
2023-04-20T11:43:00.277Z,28.57
2023-04-20T11:45:30.536Z,27.98
2023-04-20T11:47:58.218Z,27.51
2023-04-20T11:50:25.988Z,27.46
2023-04-20T11:52:52.965Z,26.55
2023-04-20T11:55:21.071Z,26.00
2023-04-20T11:57:48.005Z,26.79
2023-04-20T12:00:15.494Z,27.73
2023-04-20T12:02:42.774Z,26.93
2023-04-20T12:05:10.196Z,28.25
2023-04-20T12:07:37.421Z,26.77
2023-04-20T12:10:05.231Z,28.02
2023-04-20T12:12:32.590Z,26.94
2023-04-20T12:14:59.521Z,27.12
2023-04-20T12:17:26.576Z,25.87
2023-04-20T12:19:53.498Z,26.81
2023-04-20T12:22:20.530Z,25.59
2023-04-20T12:24:47.501Z,25.44
2023-04-20T12:27:14.396Z,24.69
2023-04-20T12:29:41.327Z,24.64
2023-04-20T12:32:08.381Z,24.14
2023-04-20T12:34:35.703Z,24.89
2023-04-20T12:37:02.634Z,25.68
2023-04-20T12:39:29.671Z,26.02
2023-04-20T12:41:58.106Z,26.35
2023-04-20T12:44:25.054Z,24.98
2023-04-20T12:46:52.014Z,25.89
2023-04-20T12:49:19.272Z,25.92
2023-04-20T12:51:46.429Z,25.50
2023-04-20T12:54:13.423Z,25.55
2023-04-20T12:56:40.302Z,27.31
2023-04-20T12:59:07.210Z,28.37
2023-04-20T13:01:34.609Z,28.03
2023-04-20T13:04:02.023Z,28.51
2023-04-20T13:06:29.240Z,28.24
2023-04-20T13:08:56.595Z,28.86
2023-04-20T13:11:24.888Z,29.62
2023-04-20T13:13:52.907Z,29.48
2023-04-20T13:16:19.871Z,29.82
2023-04-20T13:18:46.917Z,29.99
2023-04-20T13:21:13.876Z,30.50
2023-04-20T13:23:40.840Z,31.08
2023-04-20T13:26:08.058Z,30.90
2023-04-20T13:28:35.936Z,30.98
2023-04-20T13:31:02.922Z,31.12
2023-04-20T13:33:30.365Z,31.12
2023-04-20T13:35:57.396Z,31.58
2023-04-20T13:38:24.364Z,32.30
2023-04-20T13:40:51.415Z,32.36
2023-04-20T13:43:20.764Z,32.65
2023-04-20T13:45:48.584Z,32.78
2023-04-20T13:48:15.628Z,32.92
2023-04-20T13:50:42.513Z,33.26
2023-04-20T13:53:09.517Z,33.45
2023-04-20T13:55:36.527Z,33.80
2023-04-20T13:58:03.510Z,33.68
2023-04-20T14:00:31.350Z,34.60
2023-04-20T14:02:59.868Z,34.37
2023-04-20T14:05:26.960Z,34.00
2023-04-20T14:07:53.908Z,34.78
2023-04-20T14:10:20.891Z,34.94
2023-04-20T14:12:48.537Z,34.95
2023-04-20T14:15:15.542Z,35.04
2023-04-20T14:17:42.778Z,34.63
2023-04-20T14:20:11.855Z,34.97
2023-04-20T14:22:38.927Z,34.96
2023-04-20T14:25:06.731Z,35.18
2023-04-20T14:27:34.073Z,34.98
2023-04-20T14:30:01.208Z,34.94
2023-04-20T14:32:29.949Z,34.96
2023-04-20T14:34:56.955Z,34.58
2023-04-20T14:37:25.181Z,34.87
2023-04-20T14:39:52.121Z,35.33
2023-04-20T14:42:19.377Z,34.95
2023-04-20T14:44:47.907Z,34.68
2023-04-20T14:47:15.598Z,35.35
2023-04-20T14:49:42.730Z,36.00
2023-04-20T14:52:09.710Z,35.36
2023-04-20T14:54:36.855Z,36.56
2023-04-20T14:57:03.905Z,36.23
2023-04-20T14:59:33.643Z,36.36
2023-04-20T15:02:03.468Z,36.18
2023-04-20T15:04:31.318Z,36.41
2023-04-20T15:06:58.502Z,36.40
2023-04-20T15:09:27.011Z,36.40
2023-04-20T15:11:54.469Z,36.91
2023-04-20T15:14:21.772Z,35.91
2023-04-20T15:16:48.835Z,36.13
2023-04-20T15:19:15.954Z,36.21
2023-04-20T15:21:44.197Z,36.78
2023-04-20T15:24:11.790Z,37.45
2023-04-20T15:26:38.866Z,37.74
2023-04-20T15:29:06.547Z,37.11
2023-04-20T15:31:34.151Z,37.51
2023-04-20T15:34:01.102Z,37.40
2023-04-20T15:36:28.656Z,37.38
2023-04-20T15:38:57.687Z,37.66
2023-04-20T15:41:25.126Z,37.94
2023-04-20T15:43:52.101Z,38.20
2023-04-20T15:46:23.336Z,38.58
2023-04-20T15:48:50.844Z,38.63
2023-04-20T15:51:20.137Z,39.22
2023-04-20T15:53:50.763Z,39.70
2023-04-20T15:56:22.747Z,39.83
2023-04-20T15:58:50.819Z,39.73
2023-04-20T16:01:18.825Z,40.50
2023-04-20T16:03:46.669Z,40.74
2023-04-20T16:06:13.960Z,40.77
2023-04-20T16:08:41.488Z,41.09
2023-04-20T16:11:08.470Z,41.16
2023-04-20T16:13:36.537Z,41.94
2023-04-20T16:16:03.728Z,41.73
2023-04-20T16:18:32.275Z,41.60
2023-04-20T16:20:59.323Z,41.66
2023-04-20T16:23:26.481Z,41.47
2023-04-20T16:25:53.477Z,41.86
2023-04-20T16:28:20.833Z,42.47
2023-04-20T16:30:47.878Z,42.24
2023-04-20T16:33:15.559Z,42.20
2023-04-20T16:35:42.716Z,42.40
2023-04-20T16:38:10.803Z,42.79
2023-04-20T16:40:38.067Z,42.84
2023-04-20T16:43:04.986Z,43.22
2023-04-20T16:45:32.837Z,43.41
2023-04-20T16:47:59.775Z,43.69
2023-04-20T16:50:26.903Z,44.19
2023-04-20T16:52:54.497Z,44.63
2023-04-20T16:55:21.481Z,44.76
2023-04-20T16:57:48.400Z,44.78
2023-04-20T17:00:15.927Z,44.59
2023-04-20T17:02:43.304Z,44.50
2023-04-20T17:05:10.775Z,44.70
2023-04-20T17:07:38.621Z,44.27
2023-04-20T17:10:06.205Z,44.63
2023-04-20T17:12:33.336Z,44.38
2023-04-20T17:15:00.966Z,44.34
2023-04-20T17:17:28.393Z,44.22
2023-04-20T17:19:55.538Z,44.30
2023-04-20T17:22:25.808Z,45.00
2023-04-20T17:24:53.521Z,44.90
2023-04-20T17:27:20.521Z,45.04
2023-04-20T17:29:47.740Z,45.11
2023-04-20T17:32:14.796Z,45.27
2023-04-20T17:34:44.488Z,45.33
2023-04-20T17:37:12.223Z,45.47
2023-04-20T17:39:39.241Z,45.88
2023-04-20T17:42:06.283Z,46.12
2023-04-20T17:44:33.240Z,46.01
2023-04-20T17:49:41.425Z,47.97
2023-04-20T17:52:09.539Z,48.39
2023-04-20T17:54:36.478Z,48.93
2023-04-20T17:57:03.768Z,48.62
2023-04-20T17:59:31.213Z,48.67
2023-04-20T18:01:58.453Z,48.41
2023-04-20T18:04:26.095Z,47.98
2023-04-20T18:06:53.520Z,48.01
2023-04-20T18:09:20.809Z,48.26
2023-04-20T18:11:48.014Z,48.02
2023-04-20T18:14:14.970Z,48.34
2023-04-20T18:16:42.085Z,48.57
2023-04-20T18:19:09.093Z,48.64
2023-04-20T18:21:36.875Z,48.95
2023-04-20T18:24:04.680Z,48.67
2023-04-20T18:26:32.793Z,48.73
2023-04-20T18:28:59.815Z,49.66
2023-04-20T18:31:27.819Z,49.99
2023-04-20T18:33:54.826Z,49.50
2023-04-20T18:36:21.773Z,49.95
2023-04-20T18:38:50.688Z,49.90
2023-04-20T18:41:18.135Z,50.09
2023-04-20T18:43:45.739Z,50.67
2023-04-20T18:46:12.622Z,49.99
2023-04-20T18:48:39.699Z,50.65
2023-04-20T18:51:06.810Z,50.10
2023-04-20T18:53:34.838Z,50.60
2023-04-20T18:56:02.362Z,52.01
2023-04-20T18:58:30.097Z,52.12
2023-04-20T19:00:57.287Z,52.99
2023-04-20T19:03:25.719Z,53.20
2023-04-20T19:05:52.810Z,53.71
2023-04-20T19:08:20.559Z,53.55
2023-04-20T19:10:47.498Z,53.26
2023-04-20T19:13:17.740Z,53.59
2023-04-20T19:15:45.085Z,53.62
2023-04-20T19:18:12.487Z,54.15
2023-04-20T19:20:39.507Z,53.61
2023-04-20T19:23:06.668Z,53.82
2023-04-20T19:25:36.770Z,53.21
2023-04-20T19:28:04.088Z,53.39
2023-04-20T19:30:31.521Z,53.57
2023-04-20T19:33:02.363Z,53.77
2023-04-20T19:35:29.717Z,53.92
2023-04-20T19:37:56.697Z,53.63
2023-04-20T19:40:24.891Z,53.87
2023-04-20T19:42:51.905Z,54.01
2023-04-20T19:45:18.988Z,53.83
2023-04-20T19:47:46.318Z,54.06
2023-04-20T19:50:14.030Z,54.05
2023-04-20T19:52:41.194Z,54.30
2023-04-20T19:55:08.475Z,54.73
2023-04-20T19:57:35.651Z,54.59
2023-04-20T20:00:02.780Z,54.52
2023-04-20T20:02:39.984Z,54.23
2023-04-20T20:05:07.770Z,54.80
2023-04-20T20:07:35.090Z,54.93
2023-04-20T20:10:03.587Z,54.80
2023-04-20T20:12:31.038Z,54.91
2023-04-20T20:14:57.995Z,55.29
2023-04-20T20:17:25.309Z,55.17
2023-04-20T20:19:53.741Z,54.72
2023-04-20T20:22:22.156Z,55.19
2023-04-20T20:24:51.242Z,55.55
2023-04-20T20:27:18.889Z,55.52
2023-04-20T20:29:45.875Z,55.35
2023-04-20T20:32:12.807Z,55.06
2023-04-20T20:34:39.754Z,55.20
2023-04-20T20:37:07.062Z,55.90
2023-04-20T20:39:34.001Z,55.40
2023-04-20T20:42:02.016Z,55.31
2023-04-20T20:44:32.870Z,55.36
2023-04-20T20:47:00.777Z,54.93
2023-04-20T20:49:27.809Z,55.11
2023-04-20T20:51:54.893Z,54.99
2023-04-20T20:54:21.917Z,55.29
2023-04-20T20:56:49.124Z,55.41
2023-04-20T20:59:16.224Z,55.14
2023-04-20T21:01:43.404Z,54.83
2023-04-20T21:04:10.498Z,55.84
2023-04-20T21:06:37.716Z,55.85
2023-04-20T21:09:04.837Z,55.30
2023-04-20T21:11:31.971Z,53.38
2023-04-20T21:14:01.923Z,53.60
2023-04-20T21:16:29.489Z,53.20
2023-04-20T21:18:56.673Z,53.22
2023-04-20T21:21:23.567Z,53.67
2023-04-20T21:23:50.700Z,53.74
2023-04-20T21:26:17.789Z,52.76
2023-04-20T21:28:44.844Z,53.20
2023-04-20T21:31:12.326Z,53.40
2023-04-20T21:33:39.388Z,53.38
2023-04-20T21:36:07.079Z,53.64
2023-04-20T21:38:34.356Z,53.84
2023-04-20T21:41:01.418Z,54.18
2023-04-20T21:43:28.674Z,54.43
2023-04-20T21:45:55.623Z,54.78
2023-04-20T21:48:22.893Z,55.40
2023-04-20T21:50:49.973Z,55.72
2023-04-20T21:53:17.196Z,55.61
2023-04-20T21:55:44.177Z,55.84
2023-04-20T21:58:11.774Z,56.01
2023-04-20T22:00:38.773Z,56.19
2023-04-20T22:03:05.927Z,56.42
2023-04-20T22:05:34.048Z,56.23
2023-04-20T22:08:01.414Z,55.50
2023-04-20T22:10:28.756Z,55.21
2023-04-20T22:12:56.039Z,54.75
2023-04-20T22:15:23.519Z,55.05
2023-04-20T22:17:50.725Z,55.58
2023-04-20T22:20:19.346Z,55.55
2023-04-20T22:22:46.510Z,55.37
2023-04-20T22:25:13.509Z,55.50
2023-04-20T22:27:40.744Z,54.98
2023-04-20T22:30:09.644Z,54.75
2023-04-20T22:32:37.765Z,54.30
2023-04-20T22:35:05.208Z,54.60
2023-04-20T22:37:32.312Z,54.76
2023-04-20T22:39:59.291Z,53.87
2023-04-20T22:42:26.517Z,54.26
2023-04-20T22:44:53.531Z,53.81
2023-04-20T22:47:20.933Z,54.79
2023-04-20T22:49:49.080Z,54.46
2023-04-20T22:52:16.147Z,56.10
2023-04-20T22:54:47.982Z,56.04
2023-04-20T22:57:15.851Z,55.85
2023-04-20T22:59:42.801Z,56.85
2023-04-20T23:02:10.331Z,55.97
2023-04-20T23:04:37.930Z,54.20
2023-04-20T23:07:05.124Z,53.22
2023-04-20T23:09:32.306Z,54.05
2023-04-20T23:11:59.592Z,53.71
2023-04-20T23:14:28.169Z,54.48
2023-04-20T23:16:55.092Z,54.85
2023-04-20T23:19:22.030Z,54.89
2023-04-20T23:21:48.913Z,55.24
2023-04-20T23:24:15.838Z,54.62
2023-04-20T23:26:42.908Z,55.58
2023-04-20T23:29:09.883Z,55.68
2023-04-20T23:31:37.421Z,56.04
2023-04-20T23:34:04.537Z,56.13
2023-04-20T23:36:32.616Z,56.04
2023-04-20T23:38:59.877Z,56.06
2023-04-20T23:41:26.939Z,56.03
2023-04-20T23:43:54.007Z,55.50
2023-04-20T23:46:21.037Z,55.53
2023-04-20T23:48:49.332Z,55.45
2023-04-20T23:51:16.243Z,55.89
2023-04-20T23:53:43.331Z,55.98
2023-04-20T23:56:10.744Z,55.96
2023-04-20T23:58:38.290Z,55.55
